createdAt,value
2022-08-24T00:00:40.771Z,8.20
2022-08-24T00:03:11.859Z,6.40
2022-08-24T00:05:39.740Z,5.75
2022-08-24T00:08:07.343Z,7.07
2022-08-24T00:10:36.322Z,6.30
2022-08-24T00:13:04.416Z,7.00
2022-08-24T00:15:32.192Z,6.53
2022-08-24T00:17:59.829Z,8.90
2022-08-24T00:20:27.616Z,6.18
2022-08-24T00:22:55.282Z,7.72
2022-08-24T00:25:22.960Z,6.35
2022-08-24T00:27:52.041Z,6.75
2022-08-24T00:30:21.738Z,7.57
2022-08-24T00:32:50.361Z,6.43
2022-08-24T00:35:19.791Z,5.95
2022-08-24T00:37:49.017Z,5.97
2022-08-24T00:40:19.651Z,7.10
2022-08-24T00:42:47.899Z,6.80
2022-08-24T00:45:18.170Z,7.43
2022-08-24T00:47:50.080Z,7.75
2022-08-24T00:50:23.024Z,7.72
2022-08-24T00:52:53.848Z,6.80
2022-08-24T00:55:27.402Z,7.13
2022-08-24T00:57:59.203Z,6.45
2022-08-24T01:00:32.511Z,6.68
2022-08-24T01:03:04.426Z,8.00
2022-08-24T01:05:33.427Z,7.18
2022-08-24T01:08:02.589Z,6.40
2022-08-24T01:10:34.622Z,6.90
2022-08-24T01:13:05.982Z,5.85
2022-08-24T01:15:38.073Z,5.55
2022-08-24T01:18:26.002Z,7.68
2022-08-24T01:20:58.038Z,5.70
2022-08-24T01:23:37.676Z,7.78
2022-08-24T01:26:06.544Z,7.93
2022-08-24T01:28:36.941Z,6.00
2022-08-24T01:31:05.302Z,5.70
2022-08-24T01:33:33.841Z,7.07
2022-08-24T01:36:05.745Z,7.65
2022-08-24T01:38:35.773Z,9.18
2022-08-24T01:41:05.354Z,9.23
2022-08-24T01:43:34.404Z,4.72
2022-08-24T01:48:34.374Z,7.28
2022-08-24T01:51:02.018Z,5.65
2022-08-24T01:53:30.446Z,4.53
2022-08-24T01:55:59.474Z,6.35
2022-08-24T01:58:27.135Z,4.65
2022-08-24T02:00:54.992Z,5.97
2022-08-24T02:03:29.578Z,6.45
2022-08-24T02:05:59.458Z,4.93
2022-08-24T02:08:27.569Z,6.32
2022-08-24T02:10:56.766Z,4.18
2022-08-24T02:13:28.684Z,5.93
2022-08-24T02:15:56.534Z,7.32
2022-08-24T02:18:24.762Z,6.30
2022-08-24T02:20:53.190Z,5.05
2022-08-24T02:23:22.371Z,5.35
2022-08-24T02:25:50.757Z,6.03
2022-08-24T02:28:20.177Z,5.82
2022-08-24T02:30:50.368Z,6.72
2022-08-24T02:33:18.405Z,6.47
2022-08-24T02:35:46.195Z,7.35
2022-08-24T02:38:13.854Z,5.22
2022-08-24T02:40:41.696Z,4.57
2022-08-24T02:43:10.347Z,5.47
2022-08-24T02:45:40.627Z,5.20
2022-08-24T02:48:10.435Z,4.93
2022-08-24T02:50:39.900Z,5.15
2022-08-24T02:53:07.836Z,3.97
2022-08-24T02:55:36.062Z,7.82
2022-08-24T02:58:03.815Z,14.07
2022-08-24T03:00:31.555Z,6.38
2022-08-24T03:02:59.457Z,6.68
2022-08-24T03:05:30.003Z,6.90
2022-08-24T03:07:58.043Z,6.13
2022-08-24T03:10:25.912Z,8.07
2022-08-24T03:12:53.841Z,8.63
2022-08-24T03:15:27.034Z,9.73
2022-08-24T03:17:54.789Z,8.65
2022-08-24T03:20:23.943Z,7.72
2022-08-24T03:22:53.649Z,5.68
2022-08-24T03:25:24.479Z,4.50
2022-08-24T03:27:53.070Z,5.80
2022-08-24T03:30:22.056Z,6.13
2022-08-24T03:32:51.288Z,7.03
2022-08-24T03:35:21.734Z,4.90
2022-08-24T03:37:50.752Z,5.38
2022-08-24T03:40:22.333Z,6.65
2022-08-24T03:42:51.032Z,4.50
2022-08-24T03:45:19.716Z,4.45
2022-08-24T03:47:47.464Z,4.50
2022-08-24T03:50:15.601Z,5.07
2022-08-24T03:52:43.199Z,4.95
2022-08-24T03:55:12.095Z,5.38
2022-08-24T03:57:41.564Z,3.90
2022-08-24T04:00:12.418Z,3.88
2022-08-24T04:02:44.232Z,5.00
2022-08-24T04:05:17.136Z,7.65
2022-08-24T04:07:52.065Z,8.40
2022-08-24T04:10:20.024Z,4.55
2022-08-24T04:12:49.505Z,5.75
2022-08-24T04:15:17.536Z,5.25
2022-08-24T04:17:45.737Z,5.15
2022-08-24T04:20:13.958Z,5.85
2022-08-24T04:22:41.803Z,7.03
2022-08-24T04:25:10.973Z,7.95
2022-08-24T04:27:41.363Z,5.65
2022-08-24T04:30:14.373Z,3.13
2022-08-24T04:33:13.714Z,4.47
2022-08-24T04:35:45.301Z,5.72
2022-08-24T04:38:13.588Z,5.88
2022-08-24T04:40:48.949Z,7.85
2022-08-24T04:43:19.832Z,4.38
2022-08-24T04:45:51.288Z,5.45
2022-08-24T04:48:19.951Z,5.40
2022-08-24T04:50:47.898Z,4.88
2022-08-24T04:53:16.037Z,4.72
2022-08-24T04:55:51.031Z,6.75
2022-08-24T04:58:20.146Z,3.85
2022-08-24T05:00:49.239Z,5.80
2022-08-24T05:03:17.015Z,6.05
2022-08-24T05:05:49.469Z,4.57
2022-08-24T05:08:19.269Z,4.53
2022-08-24T05:10:50.470Z,5.25
2022-08-24T05:13:18.291Z,4.70
2022-08-24T05:15:48.310Z,8.15
2022-08-24T05:18:19.212Z,5.60
2022-08-24T05:20:48.581Z,6.00
2022-08-24T05:23:16.393Z,5.82
2022-08-24T05:25:44.097Z,6.65
2022-08-24T05:28:13.004Z,5.80
2022-08-24T05:30:42.911Z,4.93
2022-08-24T05:33:11.502Z,5.70
2022-08-24T05:35:43.874Z,4.68
2022-08-24T05:38:12.440Z,4.20
2022-08-24T05:40:41.202Z,5.25
2022-08-24T05:43:09.601Z,6.30
2022-08-24T05:45:37.848Z,13.05
2022-08-24T05:48:05.632Z,6.35
2022-08-24T05:50:55.740Z,5.22
2022-08-24T05:53:25.725Z,6.07
2022-08-24T05:55:54.279Z,5.20
2022-08-24T05:58:31.017Z,3.55
2022-08-24T06:01:07.553Z,5.40
2022-08-24T06:03:35.610Z,4.43
2022-08-24T06:06:07.393Z,7.72
2022-08-24T06:08:39.373Z,4.70
2022-08-24T06:11:09.530Z,7.40
2022-08-24T06:13:39.115Z,5.93
2022-08-24T06:16:21.112Z,4.88
2022-08-24T06:18:51.061Z,2.88
2022-08-24T06:21:22.955Z,3.65
2022-08-24T06:23:52.068Z,6.38
2022-08-24T06:26:39.716Z,2.97
2022-08-24T06:29:08.475Z,8.85
2022-08-24T06:31:45.501Z,8.35
2022-08-24T06:34:16.861Z,11.38
2022-08-24T06:36:47.600Z,4.53
2022-08-24T06:39:15.543Z,10.73
2022-08-24T06:41:46.155Z,8.75
2022-08-24T06:44:20.701Z,6.53
2022-08-24T06:46:56.160Z,7.93
2022-08-24T06:49:24.700Z,6.78
2022-08-24T06:51:53.729Z,7.20
2022-08-24T06:54:21.824Z,4.35
2022-08-24T06:56:50.014Z,6.22
2022-08-24T06:59:18.475Z,7.10
2022-08-24T07:01:46.642Z,8.20
2022-08-24T07:04:15.192Z,4.05
2022-08-24T07:07:10.013Z,5.00
2022-08-24T07:09:38.795Z,10.30
2022-08-24T07:12:07.152Z,10.77
2022-08-24T07:14:35.568Z,8.43
2022-08-24T07:17:03.789Z,7.30
2022-08-24T07:19:32.813Z,6.15
2022-08-24T07:22:01.501Z,5.68
2022-08-24T07:24:30.516Z,6.22
2022-08-24T07:26:58.189Z,9.57
2022-08-24T07:32:14.795Z,10.55
2022-08-24T07:34:43.688Z,9.02
2022-08-24T07:37:11.663Z,4.55
2022-08-24T07:39:44.128Z,7.00
2022-08-24T07:42:18.397Z,5.07
2022-08-24T07:44:49.815Z,5.88
2022-08-24T07:47:37.467Z,4.50
2022-08-24T07:50:12.087Z,5.60
2022-08-24T07:52:41.535Z,3.33
2022-08-24T07:55:12.539Z,3.58
2022-08-24T07:57:41.484Z,5.50
2022-08-24T08:00:13.438Z,4.32
2022-08-24T08:02:50.307Z,3.05
2022-08-24T08:05:22.552Z,4.03
2022-08-24T08:07:53.332Z,2.90
2022-08-24T08:10:23.344Z,4.63
2022-08-24T08:12:52.976Z,4.18
2022-08-24T08:15:21.100Z,3.42
2022-08-24T08:17:57.544Z,6.13
2022-08-24T08:20:26.009Z,5.10
2022-08-24T08:23:11.199Z,4.07
2022-08-24T08:25:42.449Z,3.17
2022-08-24T08:28:26.277Z,2.35
2022-08-24T08:31:02.037Z,3.87
2022-08-24T08:33:31.800Z,4.45
2022-08-24T08:36:05.699Z,4.70
2022-08-24T08:38:34.999Z,6.50
2022-08-24T08:41:25.899Z,5.80
2022-08-24T08:44:17.956Z,4.75
2022-08-24T08:46:58.685Z,2.53
2022-08-24T08:49:56.404Z,5.93
2022-08-24T08:52:37.257Z,3.00
2022-08-24T08:55:21.875Z,3.15
2022-08-24T08:58:06.703Z,2.65
2022-08-24T09:00:56.073Z,3.33
2022-08-24T09:03:45.477Z,3.20
2022-08-24T09:06:49.324Z,2.78
2022-08-24T09:09:37.387Z,4.40
2022-08-24T09:12:17.544Z,3.88
2022-08-24T09:15:10.811Z,3.33
2022-08-24T09:17:50.433Z,5.22
2022-08-24T09:20:28.892Z,2.25
2022-08-24T09:23:09.044Z,3.53
2022-08-24T09:25:46.895Z,3.50
2022-08-24T09:28:31.080Z,3.95
2022-08-24T09:31:27.914Z,4.47
2022-08-24T09:34:08.457Z,3.13
2022-08-24T09:36:50.055Z,5.43
2022-08-24T09:39:37.859Z,5.50
2022-08-24T09:42:36.023Z,1.55
2022-08-24T09:45:35.258Z,2.72
2022-08-24T09:48:46.336Z,2.53
2022-08-24T09:51:51.508Z,2.15
2022-08-24T09:54:43.697Z,3.35
2022-08-24T09:57:44.289Z,2.45
2022-08-24T10:00:20.856Z,4.20
2022-08-24T10:03:08.148Z,1.75
2022-08-24T10:05:57.243Z,2.80
2022-08-24T10:08:40.875Z,1.38
2022-08-24T10:11:35.658Z,3.92
2022-08-24T10:14:12.004Z,1.92
2022-08-24T10:16:50.655Z,2.72
2022-08-24T10:19:41.226Z,4.55
2022-08-24T10:22:20.685Z,4.68
2022-08-24T10:25:03.771Z,3.00
2022-08-24T10:27:44.493Z,2.17
2022-08-24T10:30:38.736Z,3.00
2022-08-24T10:33:16.579Z,2.50
2022-08-24T10:35:59.688Z,1.90
2022-08-24T10:38:53.009Z,2.60
2022-08-24T10:41:53.292Z,2.78
2022-08-24T10:44:44.872Z,2.17
2022-08-24T10:47:17.326Z,4.18
2022-08-24T10:50:21.188Z,1.92
2022-08-24T10:53:26.332Z,2.65
2022-08-24T10:56:14.297Z,2.75
2022-08-24T10:58:59.104Z,2.13
2022-08-24T11:01:30.792Z,1.92
2022-08-24T11:04:05.766Z,2.97
2022-08-24T11:06:35.944Z,1.90
2022-08-24T11:09:08.735Z,2.33
2022-08-24T11:11:40.887Z,2.75
2022-08-24T11:14:23.181Z,2.17
2022-08-24T11:16:55.773Z,1.73
2022-08-24T11:19:33.069Z,3.85
2022-08-24T11:22:02.840Z,2.72
2022-08-24T11:24:43.507Z,2.33
2022-08-24T11:27:30.416Z,1.55
2022-08-24T11:30:02.753Z,2.40
2022-08-24T11:32:34.665Z,3.58
2022-08-24T11:35:05.676Z,5.73
2022-08-24T11:37:35.623Z,1.88
2022-08-24T11:40:05.034Z,4.63
2022-08-24T11:42:44.589Z,2.95
2022-08-24T11:45:17.272Z,2.53
2022-08-24T11:50:30.428Z,8.85
2022-08-24T11:53:12.380Z,2.50
2022-08-24T11:55:51.734Z,2.67
2022-08-24T11:58:46.475Z,3.72
2022-08-24T12:01:19.896Z,2.95
2022-08-24T12:04:01.949Z,3.10
2022-08-24T12:06:44.207Z,2.78
2022-08-24T12:09:25.610Z,2.50
2022-08-24T12:12:00.200Z,2.05
2022-08-24T12:14:38.440Z,4.05
2022-08-24T12:17:14.783Z,3.70
2022-08-24T12:19:49.931Z,3.20
2022-08-24T12:22:20.774Z,3.90
2022-08-24T12:24:51.435Z,4.03
2022-08-24T12:27:23.165Z,3.33
2022-08-24T12:30:00.483Z,6.05
2022-08-24T12:32:37.509Z,2.28
2022-08-24T12:35:10.104Z,2.33
2022-08-24T12:37:43.367Z,2.00
2022-08-24T12:40:22.543Z,5.60
2022-08-24T12:42:54.660Z,4.10
2022-08-24T12:45:25.320Z,2.67
2022-08-24T12:48:01.373Z,1.90
2022-08-24T12:50:34.305Z,3.58
2022-08-24T12:53:21.800Z,1.73
2022-08-24T12:56:20.285Z,2.05
2022-08-24T12:58:57.941Z,3.00
2022-08-24T13:01:33.441Z,2.80
2022-08-24T13:04:13.354Z,1.85
2022-08-24T13:06:46.542Z,2.30
2022-08-24T13:09:32.119Z,2.05
2022-08-24T13:12:24.291Z,4.85
2022-08-24T13:15:26.119Z,4.00
2022-08-24T13:18:02.703Z,2.20
2022-08-24T13:20:54.870Z,1.48
2022-08-24T13:23:24.040Z,3.03
2022-08-24T13:25:58.937Z,4.13
2022-08-24T13:28:40.671Z,2.45
2022-08-24T13:31:22.990Z,1.20
2022-08-24T13:33:53.406Z,2.72
2022-08-24T13:37:03.750Z,3.20
2022-08-24T13:39:45.485Z,1.92
2022-08-24T13:42:21.571Z,2.40
2022-08-24T13:45:01.015Z,1.75
2022-08-24T13:47:35.268Z,1.02
2022-08-24T13:50:11.027Z,1.55
2022-08-24T13:52:49.081Z,2.00
2022-08-24T13:55:32.540Z,2.17
2022-08-24T13:58:22.455Z,3.65
2022-08-24T14:03:57.663Z,2.67
2022-08-24T14:06:36.050Z,1.20
2022-08-24T14:09:17.821Z,0.98
2022-08-24T14:12:11.114Z,1.52
2022-08-24T14:15:08.478Z,1.00
2022-08-24T14:17:55.106Z,1.92
2022-08-24T14:20:51.353Z,1.52
2022-08-24T14:23:29.934Z,1.50
2022-08-24T14:26:27.287Z,2.08
2022-08-24T14:28:55.164Z,4.00
2022-08-24T14:31:28.136Z,4.70
2022-08-24T14:34:10.972Z,2.33
2022-08-24T14:36:57.664Z,2.50
2022-08-24T14:39:35.679Z,2.15
2022-08-24T14:42:16.826Z,1.27
2022-08-24T14:45:03.493Z,1.80
2022-08-24T14:47:50.872Z,4.25
2022-08-24T14:50:25.072Z,2.15
2022-08-24T14:53:08.131Z,2.20
2022-08-24T14:55:43.148Z,1.52
2022-08-24T14:58:21.538Z,4.88
2022-08-24T15:01:29.472Z,0.98
2022-08-24T15:04:15.600Z,2.03
2022-08-24T15:06:58.839Z,3.55
2022-08-24T15:09:35.270Z,1.73
2022-08-24T15:12:14.264Z,0.65
2022-08-24T15:14:48.490Z,0.90
2022-08-24T15:17:23.603Z,2.05
2022-08-24T15:20:03.241Z,1.73
2022-08-24T15:22:44.002Z,2.75
2022-08-24T15:25:19.885Z,1.67
2022-08-24T15:27:54.325Z,1.98
2022-08-24T15:30:27.113Z,1.58
2022-08-24T15:33:04.108Z,1.70
2022-08-24T15:35:34.280Z,2.13
2022-08-24T15:38:18.786Z,0.70
2022-08-24T15:40:50.372Z,0.80
2022-08-24T15:45:48.429Z,3.05
2022-08-24T15:48:18.599Z,2.63
2022-08-24T15:50:49.431Z,1.15
2022-08-24T15:53:31.991Z,1.17
2022-08-24T15:56:27.071Z,1.33
2022-08-24T15:58:55.105Z,1.30
2022-08-24T16:01:43.469Z,1.92
2022-08-24T16:04:35.440Z,1.55
2022-08-24T16:07:03.151Z,2.15
2022-08-24T16:09:37.546Z,2.05
2022-08-24T16:12:13.986Z,1.58
2022-08-24T16:14:47.077Z,0.73
2022-08-24T16:17:30.541Z,1.17
2022-08-24T16:20:01.092Z,2.75
2022-08-24T16:22:32.892Z,1.10
2022-08-24T16:25:29.367Z,2.70
2022-08-24T16:28:05.388Z,2.15
2022-08-24T16:30:45.200Z,3.22
2022-08-24T16:33:43.077Z,1.98
2022-08-24T16:36:14.265Z,1.73
2022-08-24T16:38:47.242Z,2.03
2022-08-24T16:41:19.011Z,3.53
2022-08-24T16:43:48.665Z,1.00
2022-08-24T16:46:21.907Z,0.95
2022-08-24T16:48:49.911Z,1.83
2022-08-24T16:51:17.533Z,2.17
2022-08-24T16:53:45.147Z,1.55
2022-08-24T16:56:16.489Z,0.73
2022-08-24T17:01:13.647Z,2.03
2022-08-24T17:03:42.534Z,1.23
2022-08-24T17:06:12.213Z,1.30
2022-08-24T17:08:40.696Z,0.68
2022-08-24T17:11:08.527Z,1.70
2022-08-24T17:13:51.587Z,2.42
2022-08-24T17:16:22.098Z,3.05
2022-08-24T17:18:50.029Z,1.73
2022-08-24T17:21:18.844Z,1.52
2022-08-24T17:23:46.569Z,2.50
2022-08-24T17:26:20.279Z,1.38
2022-08-24T17:28:51.836Z,1.20
2022-08-24T17:31:21.035Z,1.75
2022-08-24T17:33:49.077Z,1.48
2022-08-24T17:36:17.636Z,1.52
2022-08-24T17:38:51.695Z,3.35
2022-08-24T17:41:24.328Z,1.73
2022-08-24T17:43:52.576Z,2.33
2022-08-24T17:46:22.727Z,0.90
2022-08-24T17:48:51.053Z,1.88
2022-08-24T17:51:19.269Z,2.22
2022-08-24T17:53:46.855Z,2.20
2022-08-24T17:56:16.492Z,2.25
2022-08-24T17:59:02.476Z,4.50
2022-08-24T18:01:32.141Z,23.67
2022-08-24T18:03:59.767Z,10.60
2022-08-24T18:06:28.707Z,13.23
2022-08-24T18:08:58.210Z,6.85
2022-08-24T18:11:26.464Z,2.88
2022-08-24T18:13:55.247Z,2.20
2022-08-24T18:16:27.384Z,4.28
2022-08-24T18:18:56.736Z,6.35
2022-08-24T18:21:24.696Z,6.20
2022-08-24T18:23:52.529Z,3.83
2022-08-24T18:26:27.662Z,5.03
2022-08-24T18:29:00.412Z,2.20
2022-08-24T18:31:31.565Z,1.92
2022-08-24T18:34:00.594Z,1.58
2022-08-24T18:36:28.720Z,2.42
2022-08-24T18:38:56.403Z,1.58
2022-08-24T18:41:27.443Z,3.13
2022-08-24T18:43:55.263Z,2.42
2022-08-24T18:46:23.131Z,1.17
2022-08-24T18:48:50.724Z,1.90
2022-08-24T18:51:20.935Z,2.88
2022-08-24T18:53:48.720Z,5.70
2022-08-24T18:56:16.448Z,3.20
2022-08-24T18:58:44.077Z,1.10
2022-08-24T19:01:12.956Z,1.45
2022-08-24T19:03:40.701Z,2.25
2022-08-24T19:06:08.552Z,2.22
2022-08-24T19:08:37.512Z,4.05
2022-08-24T19:11:06.762Z,3.35
2022-08-24T19:13:35.013Z,1.83
2022-08-24T19:16:02.640Z,2.00
2022-08-24T19:18:30.305Z,2.83
2022-08-24T19:20:58.944Z,2.53
2022-08-24T19:23:31.100Z,2.58
2022-08-24T19:26:01.758Z,1.88
2022-08-24T19:28:29.957Z,2.35
2022-08-24T19:31:00.685Z,4.38
2022-08-24T19:33:32.720Z,1.80
2022-08-24T19:36:00.538Z,1.35
2022-08-24T19:38:28.271Z,2.15
2022-08-24T19:40:58.077Z,3.50
2022-08-24T19:43:28.143Z,1.73
2022-08-24T19:46:02.273Z,2.17
2022-08-24T19:48:31.520Z,1.48
2022-08-24T19:51:01.087Z,2.15
2022-08-24T19:53:31.136Z,2.70
2022-08-24T19:55:58.767Z,2.85
2022-08-24T19:58:36.877Z,1.80
2022-08-24T20:01:06.740Z,1.40
2022-08-24T20:03:34.442Z,2.55
2022-08-24T20:06:02.292Z,1.83
2022-08-24T20:08:29.979Z,1.42
2022-08-24T20:11:00.281Z,2.65
2022-08-24T20:13:30.475Z,1.60
2022-08-24T20:15:58.468Z,3.63
2022-08-24T20:18:31.258Z,2.85
2022-08-24T20:20:59.384Z,3.00
2022-08-24T20:23:27.485Z,1.83
2022-08-24T20:25:57.614Z,2.72
2022-08-24T20:28:36.032Z,1.80
2022-08-24T20:31:07.101Z,2.97
2022-08-24T20:33:35.063Z,1.80
2022-08-24T20:36:03.118Z,3.53
2022-08-24T20:38:32.037Z,2.72
2022-08-24T20:41:00.864Z,2.03
2022-08-24T20:43:28.733Z,3.20
2022-08-24T20:45:57.076Z,5.50
2022-08-24T20:48:30.215Z,3.72
2022-08-24T20:50:58.000Z,3.78
2022-08-24T20:53:26.627Z,7.97
2022-08-24T20:55:56.840Z,3.53
2022-08-24T20:58:24.671Z,2.92
2022-08-24T21:00:52.340Z,4.22
2022-08-24T21:03:20.158Z,2.53
2022-08-24T21:05:52.196Z,2.97
2022-08-24T21:08:20.161Z,3.33
2022-08-24T21:10:48.327Z,4.00
2022-08-24T21:13:15.984Z,2.00
2022-08-24T21:15:43.723Z,2.60
2022-08-24T21:18:11.729Z,2.75
2022-08-24T21:20:44.699Z,3.15
2022-08-24T21:23:30.341Z,2.53
2022-08-24T21:25:58.560Z,1.70
2022-08-24T21:28:26.377Z,2.75
2022-08-24T21:30:54.029Z,3.58
2022-08-24T21:33:35.786Z,1.85
2022-08-24T21:36:03.672Z,1.60
2022-08-24T21:38:32.663Z,3.97
2022-08-24T21:41:00.597Z,2.45
2022-08-24T21:43:28.281Z,2.20
2022-08-24T21:45:56.465Z,1.73
2022-08-24T21:48:24.495Z,2.65
2022-08-24T21:50:52.110Z,3.72
2022-08-24T21:53:19.690Z,2.53
2022-08-24T21:55:50.056Z,3.42
2022-08-24T21:58:18.183Z,1.92
2022-08-24T22:00:45.885Z,2.30
2022-08-24T22:03:13.548Z,2.13
2022-08-24T22:05:41.312Z,3.08
2022-08-24T22:08:08.952Z,1.70
2022-08-24T22:10:36.558Z,2.00
2022-08-24T22:13:06.074Z,3.17
2022-08-24T22:15:34.197Z,2.75
2022-08-24T22:18:01.836Z,2.40
2022-08-24T22:20:29.547Z,2.78
2022-08-24T22:22:58.436Z,1.73
2022-08-24T22:25:26.231Z,2.35
2022-08-24T22:27:53.948Z,9.75
2022-08-24T22:30:23.000Z,2.90
2022-08-24T22:32:50.719Z,3.15
2022-08-24T22:35:18.360Z,2.95
2022-08-24T22:37:46.061Z,2.42
2022-08-24T22:40:14.048Z,2.25
2022-08-24T22:42:42.179Z,3.60
2022-08-24T22:45:11.908Z,2.28
2022-08-24T22:47:40.843Z,2.85
2022-08-24T22:50:10.892Z,1.63
2022-08-24T22:52:38.573Z,2.80
2022-08-24T22:55:06.920Z,2.55
2022-08-24T22:57:34.697Z,1.58
2022-08-24T23:00:02.926Z,3.05
2022-08-24T23:02:30.651Z,2.40
2022-08-24T23:04:59.656Z,3.53
2022-08-24T23:07:27.322Z,4.60
2022-08-24T23:09:55.096Z,3.13
2022-08-24T23:12:25.973Z,3.45
2022-08-24T23:14:53.867Z,1.85
2022-08-24T23:17:22.662Z,2.15
2022-08-24T23:20:04.893Z,2.00
2022-08-24T23:22:35.876Z,2.35
2022-08-24T23:25:05.853Z,3.00
2022-08-24T23:27:38.559Z,1.60
2022-08-24T23:30:09.369Z,3.10
2022-08-24T23:32:37.105Z,3.53
2022-08-24T23:35:05.949Z,2.55
2022-08-24T23:37:34.965Z,3.05
2022-08-24T23:40:02.930Z,3.22
2022-08-24T23:42:30.586Z,2.58
2022-08-24T23:44:58.398Z,2.65
2022-08-24T23:47:27.742Z,2.10
2022-08-24T23:49:55.432Z,2.90
2022-08-24T23:52:26.207Z,3.13
2022-08-24T23:54:55.977Z,1.70
2022-08-24T23:57:34.750Z,3.13
